Time;durP1;ratioP1;P1;durP2;ratioP2;P2;SDS_P1;SDS_P2;PMS_P1;PMS_P2;Temp;Humidity;BMP_temperature;BMP_pressure;BME280_temperature;BME280_humidity;BME280_pressure;Samples;Min_cycle;Max_cycle;Signal;HPM_P1;HPM_P2
2023/06/26 00:00:30;;;;;;;23.20;15.30;;;;;;;-143.84;99.23;44043.81;5064142;28;20478;-57
2023/06/26 00:02:57;;;;;;;22.27;17.00;;;;;;;-143.84;99.49;44013.38;5067058;28;20445;-57
2023/06/26 00:05:24;;;;;;;20.23;16.83;;;;;;;-143.84;99.62;43925.78;5070068;28;20498;-57
2023/06/26 00:07:51;;;;;;;19.80;16.00;;;;;;;-143.84;99.77;43904.84;5070246;28;20523;-57
2023/06/26 00:10:20;;;;;;;20.60;16.40;;;;;;;-143.84;100.00;43904.84;5070093;28;21251;-57
2023/06/26 00:12:47;;;;;;;24.47;15.23;;;;;;;-143.84;100.00;43859.19;5070009;28;20449;-57
2023/06/26 00:15:14;;;;;;;19.33;16.40;;;;;;;-143.84;100.00;43836.34;5069988;28;20446;-57
2023/06/26 00:17:41;;;;;;;22.30;17.87;;;;;;;-143.84;100.00;43855.38;5070330;28;20441;-57
2023/06/26 00:20:09;;;;;;;18.67;16.83;;;;;;;-143.84;100.00;43811.59;5069761;28;20841;-57
2023/06/26 00:22:40;;;;;;;19.53;17.43;;;;;;;-143.84;100.00;43813.50;5069566;28;20500;-57
2023/06/26 00:25:08;;;;;;;20.30;18.07;;;;;;;-143.84;100.00;43784.94;5069958;28;20433;-57
2023/06/26 00:27:36;;;;;;;28.93;18.63;;;;;;;-143.84;100.00;43826.81;5070338;28;20502;-57
2023/06/26 00:30:04;;;;;;;28.33;19.23;;;;;;;-143.84;100.00;43800.16;5069627;28;20449;-57
2023/06/26 00:32:32;;;;;;;25.87;18.83;;;;;;;-143.84;100.00;43794.47;5069917;28;20449;-57
2023/06/26 00:34:59;;;;;;;23.10;18.90;;;;;;;-143.84;100.00;43783.03;5069641;28;20495;-57
2023/06/26 00:37:26;;;;;;;22.63;19.40;;;;;;;-143.84;100.00;43807.78;5069782;28;20495;-57
2023/06/26 00:39:53;;;;;;;23.53;18.00;;;;;;;-143.84;100.00;43779.22;5069792;28;20481;-57
2023/06/26 00:42:20;;;;;;;20.57;18.03;;;;;;;-143.84;100.00;43783.03;5070000;28;20445;-57
2023/06/26 00:44:49;;;;;;;26.40;18.43;;;;;;;-143.84;100.00;43817.31;5069530;28;20454;-57
2023/06/26 00:47:17;;;;;;;30.97;18.13;;;;;;;-143.84;100.00;43819.19;5069631;28;20525;-57
2023/06/26 00:49:45;;;;;;;23.90;18.07;;;;;;;-143.84;100.00;43786.84;5069611;28;20441;-57
2023/06/26 00:52:12;;;;;;;28.93;17.93;;;;;;;-143.84;100.00;43798.25;5069529;28;20457;-57
2023/06/26 00:54:40;;;;;;;22.47;18.20;;;;;;;-143.84;100.00;43805.88;5069938;28;20532;-57
2023/06/26 00:57:07;;;;;;;25.87;17.60;;;;;;;-143.84;100.00;43815.41;5069954;28;20438;-57
2023/06/26 00:59:35;;;;;;;23.07;17.10;;;;;;;-143.84;100.00;43823.00;5069078;28;20488;-57
2023/06/26 01:02:03;;;;;;;29.80;15.40;;;;;;;-143.84;100.00;43811.59;5069460;28;20521;-57
2023/06/26 01:04:32;;;;;;;29.07;15.70;;;;;;;-143.84;100.00;43805.88;5069313;28;20445;-57
2023/06/26 01:07:01;;;;;;;24.10;15.87;;;;;;;-143.84;100.00;43781.13;5069132;28;20534;-57
2023/06/26 01:09:28;;;;;;;19.80;15.37;;;;;;;-143.84;100.00;43790.66;5069345;28;20537;-57
2023/06/26 01:11:56;;;;;;;26.90;15.77;;;;;;;-143.84;100.00;43756.38;5069114;28;20499;-57
2023/06/26 01:14:23;;;;;;;21.33;16.13;;;;;;;-143.84;100.00;43800.16;5069534;28;20441;-57
2023/06/26 01:16:52;;;;;;;21.20;14.60;;;;;;;-143.84;100.00;43811.59;5068937;28;20438;-57
2023/06/26 01:19:26;;;;;;;31.17;13.50;;;;;;;-143.84;100.00;43813.50;5069119;28;20492;-57
2023/06/26 01:21:59;;;;;;;18.40;13.10;;;;;;;-143.84;100.00;43824.91;5069260;28;20448;-57
2023/06/26 01:24:33;;;;;;;16.00;12.70;;;;;;;-143.84;100.00;43824.91;5068839;28;20469;-57
2023/06/26 01:27:03;;;;;;;27.37;13.00;;;;;;;-143.84;100.00;43832.53;5069247;28;20448;-58
2023/06/26 01:29:33;;;;;;;21.73;13.93;;;;;;;-143.84;100.00;43803.97;5068908;28;20450;-58
2023/06/26 01:32:01;;;;;;;33.43;12.10;;;;;;;-143.84;100.00;43824.91;5068972;28;20449;-58
2023/06/26 01:34:30;;;;;;;22.03;11.80;;;;;;;-143.84;100.00;43824.91;5069250;28;20498;-58
2023/06/26 01:36:57;;;;;;;18.30;12.47;;;;;;;-143.84;100.00;43830.63;5068623;28;20434;-58
2023/06/26 01:39:24;;;;;;;23.83;11.90;;;;;;;-143.84;100.00;43832.53;5068860;28;20489;-58
2023/06/26 01:41:51;;;;;;;16.57;12.00;;;;;;;-143.84;100.00;43861.06;5068726;28;20445;-58
2023/06/26 01:44:27;;;;;;;19.20;12.13;;;;;;;-143.84;100.00;43885.81;5068817;28;20437;-58
2023/06/26 01:47:05;;;;;;;21.43;13.60;;;;;;;-143.84;100.00;43859.19;5068957;28;20513;-58
2023/06/26 01:49:44;;;;;;;18.97;12.33;;;;;;;-143.84;100.00;43807.78;5068880;28;20437;-58
2023/06/26 01:52:20;;;;;;;21.77;13.00;;;;;;;-143.84;100.00;43836.34;5068623;28;20503;-58
2023/06/26 01:54:55;;;;;;;26.70;13.60;;;;;;;-143.84;100.00;43796.34;5068864;28;20981;-58
2023/06/26 01:57:23;;;;;;;20.23;13.90;;;;;;;-143.84;100.00;43813.50;5068950;28;20471;-58
2023/06/26 01:59:55;;;;;;;24.23;15.17;;;;;;;-143.84;100.00;43832.53;5068856;28;20564;-58
2023/06/26 02:02:25;;;;;;;32.90;15.20;;;;;;;-143.84;100.00;43815.41;5068772;28;20465;-58
2023/06/26 02:04:52;;;;;;;20.13;14.97;;;;;;;-143.84;100.00;43788.75;5068849;28;20441;-58
2023/06/26 02:07:19;;;;;;;21.90;15.27;;;;;;;-143.84;100.00;43809.69;5068691;28;20438;-58
2023/06/26 02:09:46;;;;;;;30.93;14.67;;;;;;;-143.84;100.00;43786.84;5070286;28;20441;-58
2023/06/26 02:12:14;;;;;;;19.93;14.27;;;;;;;-143.84;100.00;43802.06;5072693;28;20483;-58
2023/06/26 02:14:41;;;;;;;22.40;15.20;;;;;;;-143.84;100.00;43802.06;5072674;28;20448;-58
2023/06/26 02:17:10;;;;;;;20.47;14.27;;;;;;;-143.84;100.00;43803.97;5072737;28;20437;-58
2023/06/26 02:19:45;;;;;;;26.20;15.40;;;;;;;-143.84;100.00;43807.78;5072343;28;20522;-58
2023/06/26 02:22:12;;;;;;;28.07;16.63;;;;;;;-143.84;100.00;43779.22;5072493;28;20803;-58
2023/06/26 02:24:39;;;;;;;39.03;16.33;;;;;;;-143.84;100.00;43798.25;5072113;28;20492;-58
2023/06/26 02:27:06;;;;;;;30.73;15.57;;;;;;;-143.84;100.00;43802.06;5072346;28;20444;-58
2023/06/26 02:29:33;;;;;;;23.63;15.13;;;;;;;-143.84;100.00;43800.16;5072084;28;20522;-58
2023/06/26 02:32:00;;;;;;;24.70;16.20;;;;;;;-143.84;100.00;43788.75;5072137;28;21029;-58
2023/06/26 02:34:30;;;;;;;24.47;16.53;;;;;;;-143.84;100.00;43794.47;5072093;28;20441;-58
2023/06/26 02:36:58;;;;;;;23.23;15.83;;;;;;;-143.84;100.00;43864.88;5072030;28;20950;-58
2023/06/26 02:39:25;;;;;;;34.17;16.37;;;;;;;-143.84;100.00;43807.78;5071983;28;20506;-58
2023/06/26 02:41:53;;;;;;;36.23;17.20;;;;;;;-143.84;100.00;43800.16;5071953;28;20433;-58
2023/06/26 02:44:21;;;;;;;36.70;17.67;;;;;;;-143.84;100.00;43811.59;5071873;28;20437;-58
2023/06/26 02:46:48;;;;;;;23.87;15.50;;;;;;;-143.84;100.00;43813.50;5071866;28;20469;-58
2023/06/26 02:49:15;;;;;;;24.93;17.13;;;;;;;-143.84;100.00;43796.34;5071828;28;20507;-58
2023/06/26 02:51:44;;;;;;;21.83;16.70;;;;;;;-143.84;100.00;43802.06;5071959;28;20468;-58
2023/06/26 02:54:11;;;;;;;32.20;17.50;;;;;;;-143.84;100.00;43803.97;5070958;28;21047;-58
2023/06/26 02:56:38;;;;;;;26.00;16.90;;;;;;;-143.84;100.00;43796.34;5070866;28;20931;-58
2023/06/26 02:59:05;;;;;;;26.03;16.60;;;;;;;-143.84;100.00;43807.78;5070320;28;20444;-58
2023/06/26 03:01:33;;;;;;;22.00;16.10;;;;;;;-143.84;100.00;43784.94;5071221;28;20457;-58
2023/06/26 03:04:00;;;;;;;25.60;16.10;;;;;;;-143.84;100.00;43775.41;5070757;28;20476;-58
2023/06/26 03:06:27;;;;;;;25.60;16.40;;;;;;;-143.84;100.00;43792.56;5071169;28;20465;-58
2023/06/26 03:08:56;;;;;;;25.63;16.23;;;;;;;-143.84;100.00;43762.09;5070863;28;20441;-58
2023/06/26 03:11:23;;;;;;;23.10;16.80;;;;;;;-143.84;100.00;43781.13;5071112;28;20462;-58
2023/06/26 03:13:50;;;;;;;19.77;15.50;;;;;;;-143.84;100.00;43798.25;5070979;28;20437;-58
2023/06/26 03:16:17;;;;;;;24.40;16.83;;;;;;;-143.84;100.00;43815.41;5071600;28;20494;-58
2023/06/26 03:18:45;;;;;;;25.27;17.03;;;;;;;-143.84;100.00;43788.75;5071543;28;20955;-58
2023/06/26 03:21:12;;;;;;;30.90;18.27;;;;;;;-143.84;100.00;43807.78;5070379;28;20481;-58
2023/06/26 03:23:40;;;;;;;18.67;16.30;;;;;;;-143.84;100.00;43823.00;5070929;28;21085;-58
2023/06/26 03:26:09;;;;;;;26.03;16.20;;;;;;;-143.84;100.00;43790.66;5071174;28;20506;-58
2023/06/26 03:28:36;;;;;;;22.03;15.90;;;;;;;-143.84;100.00;43800.16;5070982;28;20957;-58
2023/06/26 03:31:03;;;;;;;27.63;18.87;;;;;;;-143.84;100.00;43813.50;5071466;28;20502;-58
2023/06/26 03:33:30;;;;;;;26.00;17.40;;;;;;;-143.84;100.00;43794.47;5071129;28;20511;-58
2023/06/26 03:35:57;;;;;;;22.67;15.37;;;;;;;-143.84;100.00;43805.88;5071289;28;20429;-58
2023/06/26 03:38:25;;;;;;;30.70;16.73;;;;;;;-143.84;100.00;43824.91;5070966;28;20446;-58
2023/06/26 03:40:53;;;;;;;21.23;14.80;;;;;;;-143.84;97.98;44066.66;5070768;28;20487;-58
2023/06/26 03:43:21;;;;;;;21.97;15.77;;;;;;;-143.84;94.54;44683.50;5070691;28;20439;-58
2023/06/26 03:45:48;;;;;;;17.37;13.67;;;;;;;-143.84;93.09;44811.06;5070937;28;20446;-58
2023/06/26 03:48:15;;;;;;;17.73;13.73;;;;;;;-143.84;92.03;44862.47;5070872;28;21181;-58
2023/06/26 03:50:42;;;;;;;16.70;12.30;;;;;;;-143.84;90.32;44957.66;5070978;28;20454;-58
2023/06/26 03:53:09;;;;;;;25.73;12.20;;;;;;;-143.84;88.92;44971.00;5070794;28;20447;-58
2023/06/26 03:55:38;;;;;;;15.23;11.40;;;;;;;-143.84;88.36;44980.53;5069011;28;21227;-58
2023/06/26 03:58:05;;;;;;;15.40;12.43;;;;;;;-143.84;88.22;44997.66;5070730;28;20440;-58
2023/06/26 04:00:33;;;;;;;18.43;11.83;;;;;;;-143.84;87.32;44991.94;5070426;28;20544;-58
2023/06/26 04:03:02;;;;;;;29.70;12.13;;;;;;;-143.84;86.28;44993.84;5070763;28;20470;-58
2023/06/26 04:05:30;;;;;;;19.73;11.33;;;;;;;-143.84;85.10;45018.59;5070436;28;20451;-58
2023/06/26 04:07:57;;;;;;;10.97;9.63;;;;;;;-143.84;84.20;45028.13;5070433;28;20914;-58
2023/06/26 04:10:24;;;;;;;14.03;11.30;;;;;;;-143.84;82.88;45022.41;5070268;28;20452;-58
2023/06/26 04:12:51;;;;;;;16.20;10.50;;;;;;;-143.84;81.55;45049.06;5070276;28;20440;-58
2023/06/26 04:15:18;;;;;;;15.37;11.10;;;;;;;-143.84;81.39;45050.97;5070211;28;20440;-58
2023/06/26 04:17:46;;;;;;;17.67;10.97;;;;;;;-143.84;80.36;45041.44;5070154;28;20441;-58
2023/06/26 04:20:14;;;;;;;22.37;11.37;;;;;;;-143.84;79.68;45041.44;5070079;28;20480;-58
2023/06/26 04:22:41;;;;;;;19.90;9.50;;;;;;;-143.84;78.60;45035.75;5069680;28;20942;-58
2023/06/26 04:25:09;;;;;;;16.00;10.90;;;;;;;-143.84;78.09;45035.75;5070112;28;21028;-58
2023/06/26 04:27:36;;;;;;;18.43;11.13;;;;;;;-143.84;77.63;45024.31;5069841;28;20492;-58
2023/06/26 04:30:03;;;;;;;20.53;10.57;;;;;;;-143.84;77.81;45047.16;5069805;28;20854;-58
2023/06/26 04:32:30;;;;;;;12.90;10.90;;;;;;;-143.84;77.61;45033.84;5069377;28;20441;-58
2023/06/26 04:34:59;;;;;;;13.83;9.97;;;;;;;-143.84;77.83;45031.94;5069902;28;20526;-58
2023/06/26 04:37:27;;;;;;;19.47;11.07;;;;;;;-143.84;78.51;45037.66;5069673;28;21015;-58
2023/06/26 04:39:54;;;;;;;15.00;12.13;;;;;;;-143.84;80.00;45035.75;5069415;28;20509;-58
2023/06/26 04:42:22;;;;;;;17.93;12.87;;;;;;;-143.84;79.49;45033.84;5069643;28;20446;-58
2023/06/26 04:44:49;;;;;;;17.30;12.70;;;;;;;-143.84;79.43;45016.69;5069575;28;20494;-58
2023/06/26 04:47:16;;;;;;;22.07;13.10;;;;;;;-143.84;78.66;45024.31;5058635;28;20513;-58
2023/06/26 04:49:45;;;;;;;17.93;13.20;;;;;;;-143.84;76.82;45039.53;5068905;28;20441;-58
2023/06/26 04:52:14;;;;;;;23.43;13.30;;;;;;;-143.84;76.90;45020.50;5069631;28;20541;-58
2023/06/26 04:54:41;;;;;;;15.33;11.87;;;;;;;-143.84;77.15;45049.06;5069296;28;20441;-58
2023/06/26 04:57:11;;;;;;;15.40;11.57;;;;;;;-143.84;77.34;44993.84;5069417;28;20441;-58
2023/06/26 04:59:38;;;;;;;14.67;11.77;;;;;;;-143.84;76.52;45020.50;5069347;28;20449;-58
2023/06/26 05:02:06;;;;;;;17.40;12.10;;;;;;;-143.84;76.60;45026.22;5069383;28;20862;-58
2023/06/26 05:04:33;;;;;;;16.37;12.03;;;;;;;-143.84;75.15;45022.41;5069489;28;21379;-57
2023/06/26 05:07:00;;;;;;;13.63;11.97;;;;;;;-143.84;74.53;45047.16;5069985;28;20451;-58
2023/06/26 05:09:29;;;;;;;17.73;12.33;;;;;;;-143.84;74.38;45026.22;5069735;28;20434;-58
2023/06/26 05:11:56;;;;;;;14.67;11.93;;;;;;;-143.84;73.73;44993.84;5069181;28;20970;-58
2023/06/26 05:14:23;;;;;;;11.30;10.20;;;;;;;-143.84;72.14;45010.97;5069288;28;20510;-58
2023/06/26 05:16:51;;;;;;;12.00;10.57;;;;;;;-143.84;70.99;45033.84;5069020;28;20959;-58
2023/06/26 05:19:18;;;;;;;13.90;7.60;;;;;;;-143.84;68.74;45049.06;5069051;28;20535;-58
2023/06/26 05:21:45;;;;;;;7.27;6.53;;;;;;;-143.84;68.25;45018.59;5069230;28;20481;-58
2023/06/26 05:24:14;;;;;;;9.70;6.83;;;;;;;-143.84;67.64;45003.38;5068879;28;20492;-58
2023/06/26 05:26:43;;;;;;;6.47;5.13;;;;;;;-143.84;66.80;45003.38;5069161;28;20441;-58
2023/06/26 05:29:11;;;;;;;4.73;4.30;;;;;;;-143.84;64.68;45022.41;5068924;28;20498;-58
2023/06/26 05:31:41;;;;;;;13.13;4.17;;;;;;;-143.84;63.80;45018.59;5068834;28;20842;-58
2023/06/26 05:34:11;;;;;;;7.97;3.97;;;;;;;-143.84;62.61;45005.28;5068832;28;20442;-58
2023/06/26 05:36:40;;;;;;;4.60;4.30;;;;;;;-143.84;61.99;44999.56;5068846;28;20440;-57
2023/06/26 05:39:08;;;;;;;5.10;4.70;;;;;;;-143.84;61.16;45007.19;5068786;28;20438;-58
2023/06/26 05:41:35;;;;;;;5.90;5.20;;;;;;;-143.84;61.09;45003.38;5069348;28;20488;-58
2023/06/26 05:44:04;;;;;;;5.17;4.77;;;;;;;-143.84;60.04;44990.03;5068137;28;20443;-58
2023/06/26 05:46:31;;;;;;;4.90;4.60;;;;;;;-143.84;58.88;44986.22;5068951;28;20938;-58
2023/06/26 05:48:58;;;;;;;6.37;5.77;;;;;;;-143.84;58.23;45003.38;5068817;28;20478;-58
2023/06/26 05:51:26;;;;;;;5.90;5.40;;;;;;;-143.84;56.16;44974.81;5068841;28;20552;-57
2023/06/26 05:53:54;;;;;;;9.17;6.30;;;;;;;-143.84;56.34;44984.31;5068658;28;20499;-58
2023/06/26 05:56:21;;;;;;;6.23;5.50;;;;;;;-143.84;55.69;44976.72;5068975;28;20554;-58
2023/06/26 05:58:49;;;;;;;5.37;4.97;;;;;;;-143.84;53.37;44965.28;5068962;28;20445;-58
2023/06/26 06:01:17;;;;;;;8.17;5.80;;;;;;;-143.84;52.97;44978.63;5068703;28;20518;-58
2023/06/26 06:03:44;;;;;;;13.60;5.77;;;;;;;-143.84;51.75;44950.06;5068471;28;20441;-57
2023/06/26 06:06:12;;;;;;;6.90;5.73;;;;;;;-143.84;51.93;44965.28;5068639;28;20955;-58
2023/06/26 06:08:39;;;;;;;13.90;6.20;;;;;;;-143.84;50.90;44934.81;5068599;28;20433;-58
2023/06/26 06:11:06;;;;;;;9.00;6.30;;;;;;;-143.84;50.94;44995.75;5068491;28;20433;-57
2023/06/26 06:13:33;;;;;;;10.80;7.00;;;;;;;-143.84;51.90;44984.31;5068813;28;20450;-57
2023/06/26 06:16:00;;;;;;;8.13;6.47;;;;;;;-143.84;53.48;44972.91;5068466;28;20965;-58
2023/06/26 06:18:29;;;;;;;6.60;6.00;;;;;;;-143.84;54.75;44993.84;5068522;28;20441;-58
2023/06/26 06:20:56;;;;;;;7.43;6.77;;;;;;;-143.84;55.73;45022.41;5068274;28;21062;-58
2023/06/26 06:23:23;;;;;;;12.00;6.57;;;;;;;-143.84;55.49;44999.56;5068136;28;20537;-58
2023/06/26 06:25:51;;;;;;;19.40;8.10;;;;;;;-143.84;57.07;44986.22;5068631;28;20440;-58
2023/06/26 06:28:18;;;;;;;8.90;7.67;;;;;;;-143.84;59.07;45028.13;5068606;28;20432;-58
2023/06/26 06:30:47;;;;;;;7.90;7.07;;;;;;;-143.84;59.96;45030.03;5068293;28;20510;-57
2023/06/26 06:33:14;;;;;;;11.00;7.20;;;;;;;-143.84;60.61;45041.44;5068606;28;20858;-57
2023/06/26 06:35:43;;;;;;;10.07;7.67;;;;;;;-143.84;60.99;44991.94;5068317;28;20433;-57
2023/06/26 06:38:10;;;;;;;8.30;7.40;;;;;;;-143.84;61.29;45012.88;5068353;28;20502;-58
2023/06/26 06:40:37;;;;;;;9.03;8.13;;;;;;;-143.84;62.52;45030.03;5068406;28;20510;-57
2023/06/26 06:43:04;;;;;;;15.53;8.30;;;;;;;-143.84;61.01;45012.88;5068403;28;20810;-57
2023/06/26 06:45:31;;;;;;;12.63;7.77;;;;;;;-143.84;60.06;45007.19;5074104;28;20452;-58
2023/06/26 06:47:58;;;;;;;12.13;7.00;;;;;;;-143.84;59.55;44995.75;5088700;28;20453;-57
2023/06/26 06:50:25;;;;;;;11.43;7.60;;;;;;;-143.84;57.88;45030.03;5088573;28;20555;-57
2023/06/26 06:52:53;;;;;;;8.80;7.60;;;;;;;-143.84;56.70;44991.94;5088564;28;20498;-57
2023/06/26 06:55:21;;;;;;;8.20;7.40;;;;;;;-143.84;56.44;44980.53;5088418;28;20443;-57
2023/06/26 06:57:48;;;;;;;8.77;7.87;;;;;;;-143.84;54.63;44995.75;5091305;28;20805;-57
2023/06/26 07:00:16;;;;;;;11.80;7.43;;;;;;;-143.84;52.75;44978.63;5092095;28;20483;-57
2023/06/26 07:02:45;;;;;;;10.13;6.60;;;;;;;-143.84;52.32;44986.22;5091982;28;20473;-58
2023/06/26 07:05:13;;;;;;;14.37;7.50;;;;;;;-143.84;51.64;44972.91;5091978;28;20929;-57
2023/06/26 07:07:40;;;;;;;8.70;7.47;;;;;;;-143.84;50.19;44953.88;5092193;28;20513;-58
2023/06/26 07:10:11;;;;;;;8.93;8.17;;;;;;;-143.84;49.82;44984.31;5091713;28;20437;-57
2023/06/26 07:12:38;;;;;;;11.53;7.90;;;;;;;-143.84;49.82;45022.41;5091900;28;20872;-58
2023/06/26 07:15:07;;;;;;;9.73;7.97;;;;;;;-143.84;49.89;44984.31;5091961;28;20440;-57
2023/06/26 07:17:35;;;;;;;7.47;6.37;;;;;;;-143.84;51.44;44967.19;5091852;28;20656;-58
2023/06/26 07:20:05;;;;;;;8.17;7.37;;;;;;;-143.84;52.12;44991.94;5091632;28;20509;-58
2023/06/26 07:22:32;;;;;;;12.63;8.07;;;;;;;-143.84;51.91;44988.13;5091604;28;20552;-57
2023/06/26 07:24:59;;;;;;;8.50;7.63;;;;;;;-143.84;52.05;44976.72;5091281;28;20514;-58
2023/06/26 07:27:28;;;;;;;8.27;7.10;;;;;;;-143.84;50.60;45001.47;5091302;28;20469;-58
2023/06/26 07:29:55;;;;;;;12.77;9.03;;;;;;;-143.84;50.51;44969.09;5091390;28;20436;-58
2023/06/26 07:32:22;;;;;;;7.80;7.00;;;;;;;-143.84;50.31;44993.84;5091113;28;20489;-58
2023/06/26 07:34:49;;;;;;;7.67;7.03;;;;;;;-143.84;51.64;44984.31;5091457;28;20498;-58
2023/06/26 07:37:16;;;;;;;14.23;9.17;;;;;;;-143.84;51.61;44974.81;5091361;28;20440;-57
2023/06/26 07:39:43;;;;;;;15.83;8.00;;;;;;;-143.84;51.25;44993.84;5091442;28;20451;-57
2023/06/26 07:42:10;;;;;;;9.03;8.23;;;;;;;-143.84;51.92;45003.38;5091110;28;21026;-57
2023/06/26 07:44:39;;;;;;;8.50;7.10;;;;;;;-143.84;52.55;44999.56;5091065;28;20439;-58
2023/06/26 07:47:06;;;;;;;10.73;7.00;;;;;;;-143.84;52.21;44990.03;5091106;28;21022;-58
2023/06/26 07:49:33;;;;;;;10.67;6.97;;;;;;;-143.84;53.29;44972.91;5090772;28;20444;-57
2023/06/26 07:52:00;;;;;;;9.70;6.37;;;;;;;-143.84;51.98;44991.94;5091268;28;20966;-57
2023/06/26 07:54:27;;;;;;;7.47;5.53;;;;;;;-143.84;52.07;45009.09;5091375;28;20500;-57
2023/06/26 07:56:56;;;;;;;7.17;6.43;;;;;;;-143.84;53.09;45003.38;5091228;28;20432;-57
2023/06/26 07:59:24;;;;;;;6.80;6.20;;;;;;;-143.84;53.39;44991.94;5090955;28;20443;-58
2023/06/26 08:01:54;;;;;;;12.50;6.27;;;;;;;-143.84;54.44;44995.75;5090861;28;20480;-57
2023/06/26 08:04:22;;;;;;;6.33;5.70;;;;;;;-143.84;52.45;44995.75;5090772;28;20437;-57
2023/06/26 08:06:49;;;;;;;7.07;6.47;;;;;;;-143.84;54.88;45016.69;5090267;28;20496;-55
2023/06/26 08:09:17;;;;;;;16.00;7.03;;;;;;;-143.84;55.70;45026.22;5090663;28;20486;-55
2023/06/26 08:11:44;;;;;;;8.03;6.50;;;;;;;-143.84;56.30;45009.09;5090677;28;20441;-55
2023/06/26 08:14:12;;;;;;;12.07;7.03;;;;;;;-143.84;57.20;45001.47;5090522;28;20452;-55
2023/06/26 08:16:40;;;;;;;7.00;6.30;;;;;;;-143.84;57.30;45005.28;5090558;28;20438;-55
2023/06/26 08:19:08;;;;;;;9.13;6.67;;;;;;;-143.84;56.69;45005.28;5090386;28;20437;-55
2023/06/26 08:21:35;;;;;;;7.47;6.20;;;;;;;-143.84;55.69;45009.09;5090389;28;20533;-55
2023/06/26 08:24:03;;;;;;;7.63;6.40;;;;;;;-143.84;57.55;45014.78;5090290;28;20493;-55
2023/06/26 08:26:30;;;;;;;7.70;6.50;;;;;;;-143.84;57.45;45007.19;5090552;28;20443;-55
2023/06/26 08:28:57;;;;;;;12.43;6.47;;;;;;;-143.84;56.25;44999.56;5090625;28;20502;-55
2023/06/26 08:31:24;;;;;;;11.00;6.40;;;;;;;-143.84;58.02;45028.13;5090402;28;20448;-54
2023/06/26 08:33:51;;;;;;;8.23;7.23;;;;;;;-143.84;57.65;45010.97;5090266;28;20510;-55
2023/06/26 08:36:20;;;;;;;7.17;6.30;;;;;;;-143.84;57.06;45007.19;5056808;28;20520;-57
2023/06/26 08:38:47;;;;;;;6.63;5.87;;;;;;;-143.84;57.96;45018.59;5059837;28;20511;-57
2023/06/26 08:41:14;;;;;;;7.63;6.53;;;;;;;-143.84;57.56;45014.78;5063673;28;20495;-57
2023/06/26 08:43:41;;;;;;;7.10;6.20;;;;;;;-143.84;57.70;45010.97;5065352;28;20457;-57
2023/06/26 08:46:09;;;;;;;11.40;6.53;;;;;;;-143.84;57.50;45026.22;5062845;28;20447;-57
2023/06/26 08:48:37;;;;;;;12.50;7.77;;;;;;;-143.84;58.67;45012.88;5064113;28;20457;-57
2023/06/26 08:51:10;;;;;;;7.23;6.63;;;;;;;-143.84;59.18;45016.69;5062800;28;20458;-57
2023/06/26 08:53:44;;;;;;;13.00;6.10;;;;;;;-143.84;58.23;45041.44;5061705;28;20936;-57
2023/06/26 08:56:16;;;;;;;10.63;6.03;;;;;;;-143.84;56.96;44993.84;5062655;28;20445;-57
2023/06/26 08:58:43;;;;;;;6.67;5.73;;;;;;;-143.84;58.10;45026.22;5063631;28;20452;-57
2023/06/26 09:01:11;;;;;;;15.00;5.20;;;;;;;-143.84;57.73;45020.50;5062700;28;20465;-57
2023/06/26 09:03:38;;;;;;;7.80;5.70;;;;;;;-143.84;56.03;45016.69;5062382;28;20842;-57
2023/06/26 09:06:05;;;;;;;7.20;6.50;;;;;;;-143.84;54.92;45007.19;5063665;28;20456;-57
2023/06/26 09:08:32;;;;;;;7.20;5.60;;;;;;;-143.84;53.04;45010.97;5063933;28;20445;-57
2023/06/26 09:11:01;;;;;;;9.63;5.67;;;;;;;-143.84;53.11;44993.84;5062775;28;20455;-57
2023/06/26 09:13:31;;;;;;;8.03;5.53;;;;;;;-143.84;52.79;44986.22;5063591;28;20456;-57
2023/06/26 09:15:58;;;;;;;18.13;5.73;;;;;;;-143.84;53.32;44972.91;5063271;28;20452;-57
2023/06/26 09:18:26;;;;;;;9.53;5.53;;;;;;;-143.84;49.56;44986.22;5063147;28;20490;-58
2023/06/26 09:20:53;;;;;;;7.73;5.90;;;;;;;-143.84;52.20;44978.63;5061788;28;20437;-57
2023/06/26 09:23:22;;;;;;;5.60;5.10;;;;;;;-143.84;48.04;44988.13;5062847;28;20921;-57
2023/06/26 09:25:49;;;;;;;6.00;5.40;;;;;;;-143.84;48.20;44972.91;5062725;28;20456;-57
2023/06/26 09:28:18;;;;;;;9.53;6.00;;;;;;;-143.84;49.51;44963.38;5062948;28;20534;-58
2023/06/26 09:30:47;;;;;;;5.53;5.03;;;;;;;-143.84;49.18;44972.91;5062230;28;20437;-57
2023/06/26 09:33:17;;;;;;;7.10;5.33;;;;;;;-143.84;49.37;44993.84;5063002;28;20529;-57
2023/06/26 09:35:45;;;;;;;6.53;5.93;;;;;;;-143.84;48.87;44990.03;5063258;28;20887;-57
2023/06/26 09:38:13;;;;;;;10.63;5.80;;;;;;;-143.84;48.44;44980.53;5062700;28;20479;-57
2023/06/26 09:40:40;;;;;;;6.73;5.90;;;;;;;-143.84;47.43;44993.84;5061728;28;20449;-57
2023/06/26 09:43:08;;;;;;;12.23;6.00;;;;;;;-143.84;47.09;44972.91;5062602;28;20562;-57
2023/06/26 09:45:37;;;;;;;8.13;6.03;;;;;;;-143.84;47.46;44955.75;5062535;28;20507;-58
2023/06/26 09:48:05;;;;;;;7.20;5.33;;;;;;;-143.84;47.15;44982.41;5063182;28;20468;-57
2023/06/26 09:50:35;;;;;;;5.60;5.03;;;;;;;-143.84;47.23;44969.09;5062224;28;20449;-57
2023/06/26 09:53:09;;;;;;;6.80;5.10;;;;;;;-143.84;47.06;44950.06;5063134;28;20805;-57
2023/06/26 09:55:37;;;;;;;4.73;4.33;;;;;;;-143.84;46.94;44955.75;5062721;28;20441;-58
2023/06/26 09:58:04;;;;;;;10.20;4.97;;;;;;;-143.84;45.93;44936.72;5062858;28;20458;-57
2023/06/26 10:00:32;;;;;;;9.17;5.73;;;;;;;-143.84;44.81;44953.88;5061751;28;20518;-58
2023/06/26 10:03:00;;;;;;;8.93;5.30;;;;;;;-143.84;45.92;44971.00;5062664;28;20485;-58
2023/06/26 10:05:28;;;;;;;6.63;5.73;;;;;;;-143.84;45.75;44971.00;5062846;28;20456;-57
2023/06/26 10:07:55;;;;;;;9.87;6.13;;;;;;;-143.84;45.76;44953.88;5062574;28;20499;-57
2023/06/26 10:10:25;;;;;;;9.40;5.33;;;;;;;-143.84;44.87;44950.06;5061651;28;20447;-58
2023/06/26 10:12:58;;;;;;;6.90;4.70;;;;;;;-143.84;45.64;44957.66;5062549;28;20468;-57
2023/06/26 10:15:28;;;;;;;9.77;4.70;;;;;;;-143.84;45.16;44944.34;5062712;28;20498;-57
2023/06/26 10:17:57;;;;;;;5.20;4.77;;;;;;;-143.84;45.95;44974.81;5062440;28;20542;-57
2023/06/26 10:20:26;;;;;;;7.07;4.60;;;;;;;-143.84;45.83;44969.09;5061892;28;20522;-57
2023/06/26 10:22:57;;;;;;;11.00;4.77;;;;;;;-143.84;46.35;44993.84;5062152;28;20508;-57
2023/06/26 10:25:25;;;;;;;5.40;4.90;;;;;;;-143.84;45.78;44961.47;5062409;28;20440;-57
2023/06/26 10:27:58;;;;;;;6.67;4.30;;;;;;;-143.84;47.32;44963.38;5062001;28;20453;-57
2023/06/26 10:30:29;;;;;;;7.43;4.83;;;;;;;-143.84;46.92;45010.97;5062628;28;20437;-57
2023/06/26 10:32:57;;;;;;;7.43;4.63;;;;;;;-143.84;46.82;44978.63;5066960;28;21212;-55
2023/06/26 10:35:27;;;;;;;8.53;4.30;;;;;;;-143.84;45.95;44971.00;5066365;28;20460;-55
2023/06/26 10:38:01;;;;;;;6.57;5.40;;;;;;;-143.84;45.26;44982.41;5065100;28;20461;-55
2023/06/26 10:40:29;;;;;;;4.50;4.10;;;;;;;-143.84;45.15;44959.56;5065863;28;20439;-55
2023/06/26 10:43:08;;;;;;;4.33;3.63;;;;;;;-143.84;45.01;44978.63;5066545;28;20493;-55
2023/06/26 10:45:36;;;;;;;4.00;3.80;;;;;;;-143.84;45.43;44980.53;5066363;28;20448;-55
2023/06/26 10:48:04;;;;;;;4.43;4.03;;;;;;;-143.84;44.57;44965.28;5065925;28;20461;-57
2023/06/26 10:50:35;;;;;;;6.03;3.57;;;;;;;-143.84;44.54;44974.81;5065462;28;20558;-57
2023/06/26 10:53:15;;;;;;;10.63;4.30;;;;;;;-143.84;44.01;44969.09;5066360;28;20467;-57
2023/06/26 10:55:44;;;;;;;4.97;4.10;;;;;;;-143.84;43.81;44984.31;5065739;28;20553;-57
2023/06/26 10:58:34;;;;;;;7.10;4.27;;;;;;;-143.84;42.65;44961.47;5064532;28;20510;-57
2023/06/26 11:01:20;;;;;;;7.17;3.80;;;;;;;-143.84;42.65;44986.22;5065121;28;20480;-58
2023/06/26 11:03:49;;;;;;;4.43;3.87;;;;;;;-143.84;41.88;44980.53;5065886;28;20481;-57
2023/06/26 11:06:19;;;;;;;5.90;3.53;;;;;;;-143.84;41.65;44963.38;5065302;28;20437;-57
2023/06/26 11:08:47;;;;;;;3.27;2.80;;;;;;;-143.84;42.25;44925.31;5064870;28;20820;-58
2023/06/26 11:11:15;;;;;;;3.90;3.60;;;;;;;-143.84;42.88;44972.91;5064556;28;20446;-57